Time;durP1;ratioP1;P1;durP2;ratioP2;P2;SDS_P1;SDS_P2;PMS_P1;PMS_P2;Temp;Humidity;BMP_temperature;BMP_pressure;BME280_temperature;BME280_humidity;BME280_pressure;Samples;Min_cycle;Max_cycle;Signal;HPM_P1;HPM_P2
2022/12/24 00:00:13;;;;;;;;;;;;;;;8.93;100.00;100574.63;5136795;27;19911;-86
2022/12/24 00:02:38;;;;;;;;;;;;;;;8.90;100.00;100564.28;5132083;27;20002;-85
2022/12/24 00:05:03;;;;;;;;;;;;;;;8.89;100.00;100579.84;5116180;28;19908;-86
2022/12/24 00:07:29;;;;;;;;;;;;;;;8.86;100.00;100578.13;5116532;28;19919;-86
2022/12/24 00:09:54;;;;;;;;;;;;;;;8.86;100.00;100582.47;5115802;28;19968;-86
2022/12/24 00:12:19;;;;;;;;;;;;;;;8.87;100.00;100582.44;5115887;28;19920;-86
2022/12/24 00:14:44;;;;;;;;;;;;;;;8.82;100.00;100581.66;5116121;28;20291;-85
2022/12/24 00:17:09;;;;;;;;;;;;;;;8.79;100.00;100589.44;5115678;28;19985;-86
2022/12/24 00:19:35;;;;;;;;;;;;;;;8.77;100.00;100588.59;5115732;28;19920;-85
2022/12/24 00:22:00;;;;;;;;;;;;;;;8.76;100.00;100589.47;5116211;28;19911;-85
2022/12/24 00:24:25;;;;;;;;;;;;;;;8.75;100.00;100603.28;5116534;27;20245;-86
2022/12/24 00:26:50;;;;;;;;;;;;;;;8.72;100.00;100601.59;5136903;27;19911;-85
2022/12/24 00:29:15;;;;;;;;;;;;;;;8.71;100.00;100601.63;5135957;27;20440;-85
2022/12/24 00:31:41;;;;;;;;;;;;;;;8.70;100.00;100592.16;5135716;27;19907;-86
2022/12/24 00:34:07;;;;;;;;;;;;;;;8.69;100.00;100611.97;5136167;27;19918;-86
2022/12/24 00:36:32;;;;;;;;;;;;;;;8.71;100.00;100617.16;5132139;27;19907;-86
2022/12/24 00:38:58;;;;;;;;;;;;;;;8.70;100.00;100603.34;5115332;28;19911;-86
2022/12/24 00:41:23;;;;;;;;;;;;;;;8.71;100.00;100619.75;5115697;28;19947;-85
2022/12/24 00:43:54;;;;;;;;;;;;;;;8.72;100.00;100626.63;5115189;28;19922;-86
2022/12/24 00:46:20;;;;;;;;;;;;;;;8.73;100.00;100633.50;5115129;28;19912;-86
2022/12/24 00:48:45;;;;;;;;;;;;;;;8.73;100.00;100636.94;5115493;28;19985;-86
2022/12/24 00:51:10;;;;;;;;;;;;;;;8.72;100.00;100635.22;5115692;28;19912;-85
2022/12/24 00:53:35;;;;;;;;;;;;;;;8.72;100.00;100642.16;5114792;28;19969;-85
2022/12/24 00:56:00;;;;;;;;;;;;;;;8.70;100.00;100643.91;5115200;27;19923;-85
2022/12/24 00:58:26;;;;;;;;;;;;;;;8.70;100.00;100646.47;5114149;28;19946;-85
2022/12/24 01:00:51;;;;;;;;;;;;;;;8.67;100.00;100649.94;5115386;28;19916;-86
2022/12/24 01:03:16;;;;;;;;;;;;;;;8.67;100.00;100656.84;5115235;28;19956;-86
2022/12/24 01:05:41;;;;;;;;;;;;;;;8.72;100.00;100660.25;5114461;28;20581;-86
2022/12/24 01:08:06;;;;;;;;;;;;;;;8.68;100.00;100667.19;5114706;28;20360;-85
2022/12/24 01:10:32;;;;;;;;;;;;;;;8.69;100.00;100671.47;5114920;28;19911;-85
2022/12/24 01:13:00;;;;;;;;;;;;;;;8.71;100.00;100661.97;5114707;28;19916;-86
2022/12/24 01:15:25;;;;;;;;;;;;;;;8.71;100.00;100655.97;5094396;28;19946;-86
2022/12/24 01:17:50;;;;;;;;;;;;;;;8.71;100.00;100666.31;5094507;28;19911;-85
2022/12/24 01:20:15;;;;;;;;;;;;;;;8.71;100.00;100672.31;5104147;27;20350;-86
2022/12/24 01:22:41;;;;;;;;;;;;;;;8.69;100.00;100668.06;5114971;28;19912;-85
2022/12/24 01:25:06;;;;;;;;;;;;;;;8.65;100.00;100677.59;5107683;28;19916;-85
2022/12/24 01:27:32;;;;;;;;;;;;;;;8.63;100.00;100680.16;5093231;28;19951;-86
2022/12/24 01:29:57;;;;;;;;;;;;;;;8.59;100.00;100681.09;5094635;28;19934;-86
2022/12/24 01:32:22;;;;;;;;;;;;;;;8.56;100.00;100690.56;5094332;28;19923;-86
2022/12/24 01:34:47;;;;;;;;;;;;;;;8.52;100.00;100697.50;5093698;28;19919;-85
2022/12/24 01:37:12;;;;;;;;;;;;;;;8.52;100.00;100701.84;5093630;28;19943;-85
2022/12/24 01:39:38;;;;;;;;;;;;;;;8.50;100.00;100697.53;5094126;28;19912;-85
2022/12/24 01:45:17;;;;;;;;;;;;;;;8.47;100.00;100705.31;5094211;28;20432;-85
2022/12/24 01:47:42;;;;;;;;;;;;;;;8.46;100.00;100703.56;5093550;28;19945;-85
2022/12/24 01:50:17;;;;;;;;;;;;;;;8.42;100.00;100707.06;5098811;28;19915;-85
2022/12/24 01:52:42;;;;;;;;;;;;;;;8.38;100.00;100705.38;5114630;28;19912;-85
2022/12/24 01:55:11;;;;;;;;;;;;;;;8.35;100.00;100716.59;5119603;27;20417;-85
2022/12/24 01:57:38;;;;;;;;;;;;;;;8.31;100.00;100714.06;5134638;27;19915;-86
2022/12/24 02:00:06;;;;;;;;;;;;;;;8.32;100.00;100718.38;5134717;27;19911;-85
2022/12/24 02:02:32;;;;;;;;;;;;;;;8.33;100.00;100714.91;5134036;27;19911;-86
2022/12/24 02:05:19;;;;;;;;;;;;;;;8.36;100.00;100725.22;5134512;27;20404;-86
2022/12/24 02:07:44;;;;;;;;;;;;;;;8.39;100.00;100719.19;5132994;27;19917;-85
2022/12/24 02:10:10;;;;;;;;;;;;;;;8.41;100.00;100732.94;5113196;28;19915;-86
2022/12/24 02:12:36;;;;;;;;;;;;;;;8.42;100.00;100730.34;5114021;28;19911;-86
2022/12/24 02:15:02;;;;;;;;;;;;;;;8.44;100.00;100731.19;5113851;28;19911;-86
2022/12/24 02:17:37;;;;;;;;;;;;;;;8.45;100.00;100743.22;5113477;28;19957;-86
2022/12/24 02:20:03;;;;;;;;;;;;;;;8.47;100.00;100741.53;5113543;28;19912;-86
2022/12/24 02:22:46;;;;;;;;;;;;;;;8.48;100.00;100748.41;5113914;28;19998;-86
2022/12/24 02:25:11;;;;;;;;;;;;;;;8.48;100.00;100745.84;5113423;28;19934;-86
2022/12/24 02:27:59;;;;;;;;;;;;;;;8.50;100.00;100741.50;5113625;28;19916;-86
2022/12/24 02:30:30;;;;;;;;;;;;;;;8.52;100.00;100745.81;5112950;28;20386;-86
2022/12/24 02:33:04;;;;;;;;;;;;;;;8.54;100.00;100744.09;5112669;28;20359;-85
2022/12/24 02:35:45;;;;;;;;;;;;;;;8.53;100.00;100747.53;5114094;28;19943;-86
2022/12/24 02:38:17;;;;;;;;;;;;;;;8.54;100.00;100746.66;5113063;28;20010;-86
2022/12/24 02:40:51;;;;;;;;;;;;;;;8.54;100.00;100747.50;5113788;28;19912;-86
2022/12/24 02:43:20;;;;;;;;;;;;;;;8.53;100.00;100750.97;5112876;28;19922;-86
2022/12/24 02:45:49;;;;;;;;;;;;;;;8.55;100.00;100748.38;5113416;28;19922;-86
2022/12/24 02:48:16;;;;;;;;;;;;;;;8.55;100.00;100753.56;5113692;28;19966;-86
2022/12/24 02:50:53;;;;;;;;;;;;;;;8.54;100.00;100755.28;5113685;28;20019;-85
2022/12/24 02:53:18;;;;;;;;;;;;;;;8.55;100.00;100757.00;5105604;28;19922;-86
2022/12/24 02:56:03;;;;;;;;;;;;;;;8.56;100.00;100763.00;5114561;28;20436;-86
2022/12/24 02:58:34;;;;;;;;;;;;;;;8.56;100.00;100760.41;5061326;28;20002;-86
2022/12/24 03:01:18;;;;;;;;;;;;;;;8.56;100.00;100752.66;5113503;28;19916;-86
2022/12/24 03:03:49;;;;;;;;;;;;;;;8.56;100.00;100755.25;5113728;28;19912;-86
2022/12/24 03:06:31;;;;;;;;;;;;;;;8.58;100.00;100753.50;5112518;28;19912;-86
2022/12/24 03:09:05;;;;;;;;;;;;;;;8.56;100.00;100753.53;5113389;28;20010;-85
2022/12/24 03:11:30;;;;;;;;;;;;;;;8.56;100.00;100757.84;5113646;28;19912;-86
2022/12/24 03:13:57;;;;;;;;;;;;;;;8.54;100.00;100765.63;5112597;28;19912;-86
2022/12/24 03:16:24;;;;;;;;;;;;;;;8.53;100.00;100757.88;5112770;28;19915;-85
2022/12/24 03:18:52;;;;;;;;;;;;;;;8.52;100.00;100769.09;5113218;28;20363;-86
2022/12/24 03:21:26;;;;;;;;;;;;;;;8.49;100.00;100765.66;5106339;28;20007;-86
2022/12/24 03:23:51;;;;;;;;;;;;;;;8.49;100.00;100757.06;5127553;28;20283;-86
2022/12/24 03:26:18;;;;;;;;;;;;;;;8.46;100.00;100755.28;5132978;28;20009;-86
2022/12/24 03:28:44;;;;;;;;;;;;;;;8.45;100.00;100758.75;5134124;28;20077;-86
2022/12/24 03:31:10;;;;;;;;;;;;;;;8.46;100.00;100757.88;5133337;28;19911;-85
2022/12/24 03:33:36;;;;;;;;;;;;;;;8.48;100.00;100763.09;5133568;28;19911;-86
2022/12/24 03:36:01;;;;;;;;;;;;;;;8.52;100.00;100769.09;5133919;28;19911;-86
2022/12/24 03:38:26;;;;;;;;;;;;;;;8.56;100.00;100770.75;5133448;28;20291;-86
2022/12/24 03:40:52;;;;;;;;;;;;;;;8.58;100.00;100774.19;5132669;28;19958;-86
2022/12/24 03:43:17;;;;;;;;;;;;;;;8.63;100.00;100777.63;5133806;27;19930;-85
2022/12/24 03:45:42;;;;;;;;;;;;;;;8.66;100.00;100777.59;5137196;27;20388;-85
2022/12/24 03:48:07;;;;;;;;;;;;;;;8.68;100.00;100783.59;5136551;27;20003;-85
2022/12/24 03:50:33;;;;;;;;;;;;;;;8.70;100.00;100787.03;5137667;27;19950;-85
2022/12/24 03:52:58;;;;;;;;;;;;;;;8.72;100.00;100787.91;5127179;27;20363;-86
2022/12/24 03:55:23;;;;;;;;;;;;;;;8.74;100.00;100783.56;5115774;28;19911;-86
2022/12/24 03:57:49;;;;;;;;;;;;;;;8.76;100.00;100784.41;5116699;28;19912;-86
2022/12/24 04:00:14;;;;;;;;;;;;;;;8.77;100.00;100790.44;5116114;28;20306;-85
2022/12/24 04:02:40;;;;;;;;;;;;;;;8.79;100.00;100788.69;5115778;28;19955;-86
2022/12/24 04:05:05;;;;;;;;;;;;;;;8.79;100.00;100791.28;5116522;28;20271;-86
2022/12/24 04:07:31;;;;;;;;;;;;;;;8.79;100.00;100789.53;5116645;28;19965;-86
2022/12/24 04:09:56;;;;;;;;;;;;;;;8.83;100.00;100794.69;5116065;28;19918;-86
2022/12/24 04:12:21;;;;;;;;;;;;;;;8.82;100.00;100788.69;5115923;28;19977;-85
2022/12/24 04:14:46;;;;;;;;;;;;;;;8.84;100.00;100781.75;5116528;28;20408;-85
2022/12/24 04:17:12;;;;;;;;;;;;;;;8.85;100.00;100796.41;5115716;28;19912;-86
2022/12/24 04:19:37;;;;;;;;;;;;;;;8.84;100.00;100801.59;5115878;28;19918;-85
2022/12/24 04:22:02;;;;;;;;;;;;;;;8.86;100.00;100802.44;5115718;28;20351;-85
2022/12/24 04:24:27;;;;;;;;;;;;;;;8.84;100.00;100799.00;5115913;28;19981;-86
2022/12/24 04:26:52;;;;;;;;;;;;;;;8.83;100.00;100811.09;5116275;28;20386;-86
2022/12/24 04:29:18;;;;;;;;;;;;;;;8.83;100.00;100810.22;5115646;28;19957;-85
2022/12/24 04:31:43;;;;;;;;;;;;;;;8.80;100.00;100804.19;5115142;28;19911;-86
2022/12/24 04:34:08;;;;;;;;;;;;;;;8.81;100.00;100802.50;5115286;28;19965;-86
2022/12/24 04:36:33;;;;;;;;;;;;;;;8.80;100.00;100803.34;5115400;28;19911;-86
2022/12/24 04:38:58;;;;;;;;;;;;;;;8.79;100.00;100810.25;5115601;28;19962;-86
2022/12/24 04:41:24;;;;;;;;;;;;;;;8.77;100.00;100809.44;5115281;28;20018;-86
2022/12/24 04:43:49;;;;;;;;;;;;;;;8.74;100.00;100822.38;5114884;28;19922;-86
2022/12/24 04:46:17;;;;;;;;;;;;;;;8.74;100.00;100818.91;5115507;28;20432;-86
2022/12/24 04:48:43;;;;;;;;;;;;;;;8.72;100.00;100818.09;5115823;28;19914;-85
2022/12/24 04:51:08;;;;;;;;;;;;;;;8.70;100.00;100825.84;5115203;28;20006;-86
2022/12/24 04:53:34;;;;;;;;;;;;;;;8.68;100.00;100822.41;5115576;28;19951;-85
2022/12/24 04:55:59;;;;;;;;;;;;;;;8.66;100.00;100819.00;5114905;28;19922;-86
2022/12/24 04:58:25;;;;;;;;;;;;;;;8.62;100.00;100820.72;5115061;28;19968;-86
2022/12/24 05:00:50;;;;;;;;;;;;;;;8.63;100.00;100832.81;5124036;28;19919;-86
2022/12/24 05:03:15;;;;;;;;;;;;;;;8.63;100.00;100827.63;5120322;28;19947;-85
2022/12/24 05:05:40;;;;;;;;;;;;;;;8.66;100.00;100826.75;5114710;28;19919;-86
2022/12/24 05:08:06;;;;;;;;;;;;;;;8.67;100.00;100835.38;5132675;27;19930;-85
2022/12/24 05:10:31;;;;;;;;;;;;;;;8.69;100.00;100831.06;5136171;27;20417;-85
2022/12/24 05:12:56;;;;;;;;;;;;;;;8.71;100.00;100831.91;5123624;27;20313;-86
2022/12/24 05:15:21;;;;;;;;;;;;;;;8.73;100.00;100843.06;5127182;27;19915;-85
2022/12/24 05:17:47;;;;;;;;;;;;;;;8.73;100.00;100835.31;5135781;27;19954;-86
2022/12/24 05:20:12;;;;;;;;;;;;;;;8.72;100.00;100831.88;5134606;27;19966;-86
2022/12/24 05:28:05;;;;;;;;;;;;;;;8.72;100.00;100818.09;5094595;28;20387;-85
2022/12/24 05:30:30;;;;;;;;;;;;;;;8.71;100.00;100818.97;5094737;28;19947;-86
2022/12/24 05:32:55;;;;;;;;;;;;;;;8.69;100.00;100824.13;5093935;28;19912;-85
2022/12/24 05:35:21;;;;;;;;;;;;;;;8.68;100.00;100824.16;5094113;28;19912;-85
2022/12/24 05:37:46;;;;;;;;;;;;;;;8.67;100.00;100828.47;5094311;28;20406;-86
2022/12/24 05:40:11;;;;;;;;;;;;;;;8.64;100.00;100825.91;5092984;28;19912;-86
2022/12/24 05:42:36;;;;;;;;;;;;;;;8.62;100.00;100831.09;5094180;28;20329;-86
2022/12/24 05:45:01;;;;;;;;;;;;;;;8.60;100.00;100830.25;5094349;28;19912;-86
2022/12/24 05:47:27;;;;;;;;;;;;;;;8.62;100.00;100840.59;5092983;28;20368;-86
2022/12/24 05:49:52;;;;;;;;;;;;;;;8.59;100.00;100844.06;5094127;28;20261;-86
2022/12/24 05:52:17;;;;;;;;;;;;;;;8.59;100.00;100853.53;5106635;27;19919;-85
2022/12/24 05:54:42;;;;;;;;;;;;;;;8.59;100.00;100862.16;5134511;27;19912;-86
2022/12/24 05:57:07;;;;;;;;;;;;;;;8.60;100.00;100863.88;5134625;27;19919;-85
2022/12/24 05:59:33;;;;;;;;;;;;;;;8.60;100.00;100865.59;5134863;27;19919;-85
2022/12/24 06:01:58;;;;;;;;;;;;;;;8.59;100.00;100862.16;5134172;27;19943;-86
2022/12/24 06:04:23;;;;;;;;;;;;;;;8.60;100.00;100863.00;5134620;27;20359;-85
2022/12/24 06:06:48;;;;;;;;;;;;;;;8.60;100.00;100871.66;5134427;27;19919;-85
2022/12/24 06:09:14;;;;;;;;;;;;;;;8.59;100.00;100872.50;5127912;27;19934;-85
2022/12/24 06:11:39;;;;;;;;;;;;;;;8.60;100.00;100878.53;5114047;28;19947;-86
2022/12/24 06:14:04;;;;;;;;;;;;;;;8.55;100.00;100873.41;5113953;28;19919;-86
2022/12/24 06:16:29;;;;;;;;;;;;;;;8.55;100.00;100873.41;5113511;28;19931;-86
2022/12/24 06:18:54;;;;;;;;;;;;;;;8.54;100.00;100874.25;5114231;28;19916;-86
2022/12/24 06:21:20;;;;;;;;;;;;;;;8.53;100.00;100869.09;5113706;28;20364;-85
2022/12/24 06:23:45;;;;;;;;;;;;;;;8.52;100.00;100863.06;5118494;27;19915;-86
2022/12/24 06:26:11;;;;;;;;;;;;;;;8.51;100.00;100869.09;5113683;28;20361;-86
2022/12/24 06:28:37;;;;;;;;;;;;;;;8.49;100.00;100871.72;5113788;28;19958;-85
2022/12/24 06:31:02;;;;;;;;;;;;;;;8.50;100.00;100880.31;5113360;28;19943;-85
2022/12/24 06:33:28;;;;;;;;;;;;;;;8.49;100.00;100882.06;5114211;28;20417;-85
2022/12/24 06:35:53;;;;;;;;;;;;;;;8.48;100.00;100895.00;5113555;28;19912;-85
2022/12/24 06:38:18;;;;;;;;;;;;;;;8.45;100.00;100895.81;5113103;28;19916;-85
2022/12/24 06:40:44;;;;;;;;;;;;;;;8.45;100.00;100901.00;5113592;28;19915;-85
2022/12/24 06:43:10;;;;;;;;;;;;;;;8.42;100.00;100906.22;5113006;28;19915;-85
2022/12/24 06:45:35;;;;;;;;;;;;;;;8.41;100.00;100904.50;5113645;28;20004;-85
2022/12/24 06:48:01;;;;;;;;;;;;;;;8.39;100.00;100908.81;5113723;28;19977;-86
2022/12/24 06:50:26;;;;;;;;;;;;;;;8.39;100.00;100908.81;5112810;28;19919;-85
2022/12/24 06:52:51;;;;;;;;;;;;;;;8.38;100.00;100907.09;5121488;28;19922;-86
2022/12/24 06:55:17;;;;;;;;;;;;;;;8.39;100.00;100905.38;5133610;28;19964;-85
2022/12/24 06:57:42;;;;;;;;;;;;;;;8.37;100.00;100907.09;5133602;28;19911;-86
2022/12/24 07:00:08;;;;;;;;;;;;;;;8.34;100.00;100906.25;5134094;28;19911;-85
2022/12/24 07:02:33;;;;;;;;;;;;;;;8.37;100.00;100914.88;5133695;28;20382;-85
2022/12/24 07:04:58;;;;;;;;;;;;;;;8.33;100.00;100908.84;5131890;28;19911;-85
2022/12/24 07:07:23;;;;;;;;;;;;;;;8.34;100.00;100915.72;5112892;28;20019;-85
2022/12/24 07:09:49;;;;;;;;;;;;;;;8.33;100.00;100926.94;5113332;28;19915;-86
2022/12/24 07:12:14;;;;;;;;;;;;;;;8.32;100.00;100918.31;5112256;28;20280;-86
2022/12/24 07:14:39;;;;;;;;;;;;;;;8.33;100.00;100924.38;5113489;28;19923;-84
2022/12/24 07:17:04;;;;;;;;;;;;;;;8.33;100.00;100929.53;5132048;28;20142;-86
2022/12/24 07:19:29;;;;;;;;;;;;;;;8.31;100.00;100939.88;5133884;27;19922;-84
2022/12/24 07:21:54;;;;;;;;;;;;;;;8.31;100.00;100932.09;5121231;27;19915;-84
2022/12/24 07:24:20;;;;;;;;;;;;;;;8.28;100.00;100934.69;5127959;27;20310;-85
2022/12/24 07:26:45;;;;;;;;;;;;;;;8.25;100.00;100934.75;5116825;28;20010;-85
2022/12/24 07:29:10;;;;;;;;;;;;;;;8.24;100.00;100935.59;5116670;28;19912;-84
2022/12/24 07:31:36;;;;;;;;;;;;;;;8.21;100.00;100948.53;5117248;28;19965;-85
2022/12/24 07:34:01;;;;;;;;;;;;;;;8.16;100.00;100958.91;5116259;28;19911;-84
2022/12/24 07:36:27;;;;;;;;;;;;;;;8.13;100.00;100956.31;5116767;28;19912;-85
2022/12/24 07:38:52;;;;;;;;;;;;;;;8.09;100.00;100967.53;5117031;28;20281;-85
2022/12/24 07:41:17;;;;;;;;;;;;;;;8.08;100.00;100967.53;5115589;28;19918;-85
2022/12/24 07:43:42;;;;;;;;;;;;;;;8.06;100.00;100964.09;5116848;28;19922;-85
2022/12/24 07:46:08;;;;;;;;;;;;;;;8.07;100.00;100970.97;5116391;28;19911;-85
2022/12/24 07:48:33;;;;;;;;;;;;;;;8.02;100.00;100958.94;5115889;28;19961;-84
2022/12/24 07:50:59;;;;;;;;;;;;;;;8.03;100.00;100970.13;5117893;27;20005;-85
2022/12/24 07:53:25;;;;;;;;;;;;;;;8.02;100.00;100974.44;5115957;28;19915;-84
2022/12/24 07:55:50;;;;;;;;;;;;;;;8.01;100.00;100974.44;5116560;28;19916;-84
2022/12/24 07:58:16;;;;;;;;;;;;;;;7.99;100.00;100982.22;5118613;27;19968;-85
2022/12/24 08:00:41;;;;;;;;;;;;;;;7.97;100.00;100988.25;5115802;28;20677;-85
2022/12/24 08:03:06;;;;;;;;;;;;;;;7.95;100.00;101003.75;5116331;28;19973;-85
2022/12/24 08:05:35;;;;;;;;;;;;;;;7.97;100.00;101009.78;5116920;28;20375;-85
2022/12/24 08:08:00;;;;;;;;;;;;;;;7.99;100.00;101007.22;5122655;27;19915;-85
2022/12/24 08:10:25;;;;;;;;;;;;;;;7.98;100.00;101010.66;5135953;27;19915;-85
2022/12/24 08:12:50;;;;;;;;;;;;;;;7.98;100.00;101010.66;5136892;27;19915;-82
2022/12/24 08:15:16;;;;;;;;;;;;;;;7.99;100.00;101017.53;5128111;27;20364;-87
2022/12/24 08:17:41;;;;;;;;;;;;;;;7.99;100.00;101026.16;5116480;27;19916;-85
2022/12/24 08:20:07;;;;;;;;;;;;;;;8.00;100.00;101027.88;5115851;27;19923;-85
2022/12/24 08:22:32;;;;;;;;;;;;;;;8.01;100.00;101037.34;5130860;27;20470;-85
2022/12/24 08:24:57;;;;;;;;;;;;;;;8.02;100.00;101039.06;5112781;27;19913;-85
2022/12/24 08:27:22;;;;;;;;;;;;;;;8.01;100.00;101039.94;5095328;28;19954;-86
2022/12/24 08:29:48;;;;;;;;;;;;;;;8.00;100.00;101051.13;5106636;28;19956;-84
2022/12/24 08:32:13;;;;;;;;;;;;;;;8.02;100.00;101051.13;5115724;28;19959;-85
2022/12/24 08:34:38;;;;;;;;;;;;;;;8.06;100.00;101051.97;5117037;28;19964;-87
2022/12/24 08:37:04;;;;;;;;;;;;;;;8.07;100.00;101057.16;5114767;28;20303;-86
2022/12/24 08:39:29;;;;;;;;;;;;;;;8.07;100.00;101046.81;5114820;28;20372;-84
2022/12/24 08:41:54;;;;;;;;;;;;;;;8.09;100.00;101054.56;5113799;27;20371;-85
2022/12/24 08:44:20;;;;;;;;;;;;;;;8.10;100.00;101056.28;5113562;27;20040;-85
2022/12/24 08:46:45;;;;;;;;;;;;;;;8.09;100.00;101062.31;5116854;27;20034;-85
2022/12/24 08:49:10;;;;;;;;;;;;;;;8.09;100.00;101057.16;5113694;28;19915;-86
2022/12/24 08:51:35;;;;;;;;;;;;;;;8.14;100.00;101064.03;5109559;27;19973;-86
2022/12/24 08:54:01;;;;;;;;;;;;;;;8.18;100.00;101070.94;5109708;28;19915;-86
2022/12/24 08:56:26;;;;;;;;;;;;;;;8.21;100.00;101071.78;5121085;27;19922;-86
2022/12/24 08:58:51;;;;;;;;;;;;;;;8.24;100.00;101075.22;5133750;27;19915;-87
2022/12/24 09:01:17;;;;;;;;;;;;;;;8.27;100.00;101082.09;5112859;27;20275;-86
2022/12/24 09:03:43;;;;;;;;;;;;;;;8.29;100.00;101085.56;5114313;28;20398;-87
2022/12/24 09:06:08;;;;;;;;;;;;;;;8.30;100.00;101084.69;5115060;28;19919;-90
2022/12/24 09:08:34;;;;;;;;;;;;;;;8.30;100.00;101087.28;5113389;27;19922;-86
2022/12/24 09:11:04;;;;;;;;;;;;;;;8.31;100.00;101084.69;5116930;27;19912;-88
2022/12/24 09:13:29;;;;;;;;;;;;;;;8.33;100.00;101097.63;5115780;28;19911;-88
2022/12/24 09:15:54;;;;;;;;;;;;;;;8.33;100.00;101100.22;5127076;27;20051;-88
2022/12/24 09:18:20;;;;;;;;;;;;;;;8.34;100.00;101105.38;5123210;27;19923;-89
2022/12/24 09:20:45;;;;;;;;;;;;;;;8.36;100.00;101110.53;5115847;27;20291;-88
2022/12/24 09:23:10;;;;;;;;;;;;;;;8.39;100.00;101120.03;5115087;28;20334;-88
2022/12/24 09:25:39;;;;;;;;;;;;;;;8.42;100.00;101115.72;5115830;28;19920;-88
2022/12/24 09:28:04;;;;;;;;;;;;;;;8.47;100.00;101134.69;5115773;28;19930;-88
2022/12/24 09:30:30;;;;;;;;;;;;;;;8.50;100.00;101134.69;5115963;28;19911;-88
2022/12/24 09:32:55;;;;;;;;;;;;;;;8.57;100.00;101135.53;5115357;28;20309;-88
2022/12/24 09:35:20;;;;;;;;;;;;;;;8.62;100.00;101141.53;5115489;28;19911;-88
2022/12/24 09:37:45;;;;;;;;;;;;;;;8.67;100.00;101146.69;5115407;28;19994;-88
2022/12/24 09:40:21;;;;;;;;;;;;;;;8.73;100.00;101148.41;5114670;28;20408;-89
2022/12/24 09:42:53;;;;;;;;;;;;;;;8.76;100.00;101138.94;5115246;28;19969;-89
2022/12/24 09:45:28;;;;;;;;;;;;;;;8.78;100.00;101137.19;5115581;28;19911;-85
2022/12/24 09:48:00;;;;;;;;;;;;;;;8.85;100.00;101155.31;5115390;27;20003;-86
2022/12/24 09:50:26;;;;;;;;;;;;;;;8.89;100.00;101151.84;5093745;28;19938;-87
2022/12/24 09:52:51;;;;;;;;;;;;;;;8.92;100.00;101152.69;5094160;28;19915;-86
2022/12/24 09:55:17;;;;;;;;;;;;;;;8.95;100.00;101160.44;5093314;28;19912;-85
2022/12/24 09:57:43;;;;;;;;;;;;;;;8.95;100.00;101165.59;5094018;28;20371;-86
2022/12/24 10:00:19;;;;;;;;;;;;;;;8.97;100.00;101163.03;5092821;28;19912;-85
2022/12/24 10:02:46;;;;;;;;;;;;;;;9.01;100.00;101172.50;5094027;28;19999;-86
2022/12/24 10:05:14;;;;;;;;;;;;;;;9.03;100.00;101181.13;5093195;28;19912;-85
2022/12/24 10:08:04;;;;;;;;;;;;;;;9.09;100.00;101178.53;5093030;28;20398;-93
2022/12/24 10:10:34;;;;;;;;;;;;;;;9.17;100.00;101183.69;5102739;28;19919;-85
2022/12/24 10:13:23;;;;;;;;;;;;;;;9.24;100.00;101176.72;5113998;28;19911;-85
2022/12/24 10:15:53;;;;;;;;;;;;;;;9.29;100.00;101179.31;5102044;28;19915;-85
2022/12/24 10:18:37;;;;;;;;;;;;;;;9.27;100.00;101185.34;5113916;28;19957;-85
2022/12/24 10:21:13;;;;;;;;;;;;;;;9.26;100.00;101172.41;5113376;28;20018;-84
2022/12/24 10:23:45;;;;;;;;;;;;;;;9.28;100.00;101173.25;5113519;28;19919;-84
2022/12/24 10:26:16;;;;;;;;;;;;;;;9.29;100.00;101168.94;5113668;28;19916;-87
2022/12/24 10:28:46;;;;;;;;;;;;;;;9.32;100.00;101164.63;5113136;28;19912;-85
2022/12/24 10:31:12;;;;;;;;;;;;;;;9.35;100.00;101167.16;5114740;28;20021;-84
2022/12/24 10:33:42;;;;;;;;;;;;;;;9.36;100.00;101168.88;5113625;28;19967;-84
2022/12/24 10:36:15;;;;;;;;;;;;;;;9.37;100.00;101160.25;5112493;28;20291;-83
2022/12/24 10:38:40;;;;;;;;;;;;;;;9.43;100.00;101167.13;5114083;28;19912;-83
2022/12/24 10:41:07;;;;;;;;;;;;;;;9.40;100.00;101169.75;5113363;28;20316;-83
2022/12/24 10:43:32;;;;;;;;;;;;;;;9.41;100.00;101181.81;5112775;28;19916;-83
2022/12/24 10:46:03;;;;;;;;;;;;;;;9.41;100.00;101187.88;5113416;28;19911;-83
2022/12/24 10:48:34;;;;;;;;;;;;;;;9.39;100.00;101179.25;5095383;28;19957;-83
2022/12/24 10:51:06;;;;;;;;;;;;;;;9.42;100.00;101188.72;5092668;28;19912;-83
2022/12/24 10:53:35;;;;;;;;;;;;;;;9.43;100.00;101180.09;5094137;28;19947;-84
2022/12/24 10:56:03;;;;;;;;;;;;;;;9.42;100.00;101180.94;5097246;28;19912;-84
2022/12/24 10:58:29;;;;;;;;;;;;;;;9.45;100.00;101177.50;5096678;28;19912;-83
2022/12/24 11:00:54;;;;;;;;;;;;;;;9.48;100.00;101174.88;5099477;27;19969;-83
2022/12/24 11:03:21;;;;;;;;;;;;;;;9.51;100.00;101174.88;5137294;27;19919;-84
2022/12/24 11:05:58;;;;;;;;;;;;;;;9.52;100.00;101181.78;5138323;27;19923;-83
2022/12/24 11:08:24;;;;;;;;;;;;;;;9.55;100.00;101176.59;5138077;27;19960;-84
2022/12/24 11:10:54;;;;;;;;;;;;;;;9.55;100.00;101181.75;5137493;27;19918;-83
2022/12/24 11:13:23;;;;;;;;;;;;;;;9.54;100.00;101188.66;5137707;27;19912;-84
2022/12/24 11:15:50;;;;;;;;;;;;;;;9.56;100.00;101196.44;5137888;27;19911;-83
2022/12/24 11:18:16;;;;;;;;;;;;;;;9.57;100.00;101193.84;5137355;27;19990;-83
2022/12/24 11:20:47;;;;;;;;;;;;;;;9.60;100.00;101192.94;5138092;27;20068;-83
2022/12/24 11:23:15;;;;;;;;;;;;;;;9.68;100.00;101192.91;5137693;27;19968;-83
2022/12/24 11:25:45;;;;;;;;;;;;;;;9.69;100.00;101189.44;5125604;27;19972;-83
2022/12/24 11:28:17;;;;;;;;;;;;;;;9.74;100.00;101183.38;5116761;28;19912;-84
2022/12/24 11:30:53;;;;;;;;;;;;;;;9.83;100.00;101199.72;5117345;28;19916;-83
2022/12/24 11:33:20;;;;;;;;;;;;;;;9.87;100.00;101193.66;5096042;28;19920;-83
2022/12/24 11:36:05;;;;;;;;;;;;;;;9.88;100.00;101195.38;5101174;28;19916;-82
2022/12/24 11:38:32;;;;;;;;;;;;;;;9.88;100.00;101187.59;5115780;27;19916;-86
2022/12/24 11:41:05;;;;;;;;;;;;;;;9.90;100.00;101201.44;5130207;27;19911;-86
2022/12/24 11:43:43;;;;;;;;;;;;;;;9.87;100.00;101197.09;5137401;27;19929;-86
2022/12/24 11:46:17;;;;;;;;;;;;;;;9.88;100.00;101201.41;5136529;27;19917;-87
2022/12/24 11:48:42;;;;;;;;;;;;;;;9.88;100.00;101209.19;5137521;27;20268;-87
2022/12/24 11:51:18;;;;;;;;;;;;;;;9.89;100.00;101208.31;5136692;27;19915;-86
2022/12/24 11:53:47;;;;;;;;;;;;;;;9.92;100.00;101209.19;5134912;27;19918;-87
2022/12/24 11:56:16;;;;;;;;;;;;;;;9.92;100.00;101206.59;5135545;27;19911;-85
2022/12/24 11:58:41;;;;;;;;;;;;;;;9.93;100.00;101208.31;5116249;28;19931;-86
2022/12/24 12:01:25;;;;;;;;;;;;;;;9.93;100.00;101213.50;5115754;28;20359;-86
2022/12/24 12:03:53;;;;;;;;;;;;;;;9.94;100.00;101203.09;5116301;28;19951;-87
2022/12/24 12:06:34;;;;;;;;;;;;;;;9.94;100.00;101203.09;5116443;28;19912;-87
2022/12/24 12:09:01;;;;;;;;;;;;;;;9.94;100.00;101210.03;5116440;27;20013;-86
2022/12/24 12:11:27;;;;;;;;;;;;;;;9.92;100.00;101201.41;5117166;27;20352;-87
2022/12/24 12:13:53;;;;;;;;;;;;;;;9.89;100.00;101210.06;5115253;28;19955;-87
2022/12/24 12:16:25;;;;;;;;;;;;;;;9.88;100.00;101205.75;5116302;28;20385;-86
2022/12/24 12:19:10;;;;;;;;;;;;;;;9.90;100.00;101204.03;5116733;28;20244;-86
2022/12/24 12:21:41;;;;;;;;;;;;;;;9.97;100.00;101202.22;5115355;28;19922;-85
2022/12/24 12:24:12;;;;;;;;;;;;;;;9.98;99.86;101211.72;5115828;28;19911;-86
2022/12/24 12:26:39;;;;;;;;;;;;;;;9.99;99.49;101216.91;5115933;28;20064;-85
2022/12/24 12:29:40;;;;;;;;;;;;;;;9.96;99.90;101226.44;5114992;28;20063;-85
2022/12/24 12:32:06;;;;;;;;;;;;;;;9.92;98.56;101224.75;5013841;28;19956;-87
2022/12/24 12:34:35;;;;;;;;;;;;;;;9.92;99.33;101227.34;5095845;28;19919;-89
2022/12/24 12:37:16;;;;;;;;;;;;;;;9.92;99.04;101232.53;5118059;28;19912;-88
2022/12/24 12:39:42;;;;;;;;;;;;;;;9.93;99.38;101231.66;5137233;27;19926;-91
2022/12/24 12:42:26;;;;;;;;;;;;;;;9.95;99.39;101235.09;5140097;27;19916;-89
2022/12/24 12:45:09;;;;;;;;;;;;;;;9.98;98.98;101237.66;5116999;28;19995;-89
2022/12/24 12:47:48;;;;;;;;;;;;;;;9.96;96.58;101237.66;5116674;28;19915;-89